Time;durP1;ratioP1;P1;durP2;ratioP2;P2;SDS_P1;SDS_P2;PMS_P1;PMS_P2;Temp;Humidity;BMP_temperature;BMP_pressure;BME280_temperature;BME280_humidity;BME280_pressure;Samples;Min_cycle;Max_cycle;Signal;HPM_P1;HPM_P2
2023/05/19 00:00:45;;;;;;;4.40;1.23;;;8.80;99.90;;;;;;5093769;28;20079;-55
2023/05/19 00:03:11;;;;;;;3.53;1.08;;;8.70;99.90;;;;;;5093393;28;20052;-56
2023/05/19 00:05:44;;;;;;;3.50;1.20;;;8.80;99.90;;;;;;5093402;28;20044;-56
2023/05/19 00:08:11;;;;;;;5.03;1.30;;;8.80;99.90;;;;;;5093592;28;20044;-56
2023/05/19 00:10:37;;;;;;;4.18;1.80;;;8.80;99.90;;;;;;5093421;28;20044;-56
2023/05/19 00:13:03;;;;;;;3.70;1.52;;;8.90;99.90;;;;;;5093531;28;20126;-56
2023/05/19 00:15:29;;;;;;;3.67;1.20;;;8.80;99.90;;;;;;5093372;28;20173;-56
2023/05/19 00:17:55;;;;;;;6.20;1.20;;;8.90;99.90;;;;;;5093475;28;20396;-56
2023/05/19 00:20:21;;;;;;;2.50;1.07;;;8.90;99.90;;;;;;5093130;28;20135;-56
2023/05/19 00:22:47;;;;;;;3.92;1.20;;;8.90;99.90;;;;;;5093385;28;20040;-55
2023/05/19 00:25:13;;;;;;;3.78;1.20;;;8.90;99.90;;;;;;5093446;28;20403;-55
2023/05/19 00:27:38;;;;;;;4.20;1.10;;;8.90;99.90;;;;;;5093248;28;20050;-56
2023/05/19 00:30:05;;;;;;;3.70;1.17;;;8.90;99.90;;;;;;5093443;28;20043;-56
2023/05/19 00:32:30;;;;;;;4.05;1.02;;;8.90;99.90;;;;;;5093068;28;20043;-56
2023/05/19 00:34:56;;;;;;;2.10;0.90;;;8.90;99.90;;;;;;5092946;28;20479;-56
2023/05/19 00:37:22;;;;;;;2.80;1.13;;;9.00;99.90;;;;;;5092958;28;20376;-56
2023/05/19 00:39:48;;;;;;;3.77;1.20;;;9.00;99.90;;;;;;5093170;28;20048;-56
2023/05/19 00:42:14;;;;;;;3.15;1.20;;;9.10;99.90;;;;;;5093183;28;20040;-56
2023/05/19 00:44:41;;;;;;;3.87;0.97;;;9.10;99.90;;;;;;5093931;28;20047;-56
2023/05/19 00:47:07;;;;;;;6.05;1.40;;;9.10;99.90;;;;;;5096898;28;20040;-56
2023/05/19 00:49:33;;;;;;;1.95;0.88;;;9.10;99.90;;;;;;5096577;28;20052;-56
2023/05/19 00:52:00;;;;;;;5.00;1.02;;;9.10;99.90;;;;;;5097120;28;20047;-56
2023/05/19 00:54:27;;;;;;;4.70;1.40;;;9.20;99.90;;;;;;5097033;28;20172;-56
2023/05/19 00:56:54;;;;;;;2.85;0.80;;;9.10;99.90;;;;;;5096612;28;20047;-56
2023/05/19 00:59:19;;;;;;;;;;;9.10;99.90;;;;;;5096101;28;20048;-56
2023/05/19 01:01:47;;;;;;;3.83;0.90;;;9.10;99.90;;;;;;5096443;28;20018;-56
2023/05/19 01:04:17;;;;;;;4.65;1.00;;;9.10;99.90;;;;;;5096631;28;20399;-56
2023/05/19 01:06:43;;;;;;;2.75;1.00;;;9.20;99.90;;;;;;5096511;28;20130;-56
2023/05/19 01:09:09;;;;;;;5.37;1.50;;;9.10;99.90;;;;;;5096430;28;20143;-56
2023/05/19 01:11:35;;;;;;;5.03;1.00;;;9.10;99.90;;;;;;5096479;28;20625;-56
2023/05/19 01:14:00;;;;;;;3.47;1.13;;;9.20;99.90;;;;;;5096296;28;20087;-56
2023/05/19 01:16:26;;;;;;;2.23;0.90;;;9.10;99.90;;;;;;5095928;28;20063;-56
2023/05/19 01:19:11;;;;;;;3.57;1.10;;;9.20;99.90;;;;;;5096420;28;20048;-56
2023/05/19 01:21:36;;;;;;;2.92;0.90;;;9.10;99.90;;;;;;5096255;28;20040;-56
2023/05/19 01:24:36;;;;;;;3.93;0.90;;;9.10;99.90;;;;;;5096224;28;20433;-56
2023/05/19 01:27:33;;;;;;;7.32;1.52;;;9.10;99.90;;;;;;5095996;28;20048;-56
2023/05/19 01:30:38;;;;;;;2.85;0.93;;;9.10;99.90;;;;;;5041238;28;20122;-55
2023/05/19 01:33:08;;;;;;;3.65;1.00;;;9.10;99.90;;;;;;5095697;28;20048;-55
2023/05/19 01:35:38;;;;;;;5.15;1.20;;;9.10;99.90;;;;;;5095848;28;20044;-56
2023/05/19 01:38:08;;;;;;;2.80;1.08;;;9.10;99.90;;;;;;5095759;28;20060;-56
2023/05/19 01:40:34;;;;;;;3.17;1.00;;;9.10;99.90;;;;;;5095879;28;20398;-56
2023/05/19 01:43:01;;;;;;;3.58;1.08;;;9.10;99.90;;;;;;5095753;28;20044;-56
2023/05/19 01:45:27;;;;;;;;;;;9.10;99.90;;;;;;5096246;28;20032;-56
2023/05/19 01:47:55;;;;;;;5.00;1.00;;;9.00;99.90;;;;;;5094635;28;19920;-56
2023/05/19 01:50:21;;;;;;;5.25;1.20;;;9.00;99.90;;;;;;5095705;28;20059;-55
2023/05/19 01:52:47;;;;;;;3.00;1.27;;;8.90;99.90;;;;;;5095649;28;20040;-56
2023/05/19 01:55:13;;;;;;;4.90;1.33;;;8.90;99.90;;;;;;5094161;28;20047;-56
2023/05/19 01:57:46;;;;;;;3.10;1.20;;;8.90;99.90;;;;;;5095395;28;20050;-56
2023/05/19 02:00:29;;;;;;;5.03;0.98;;;8.90;99.90;;;;;;5095426;28;20443;-56
2023/05/19 02:03:27;;;;;;;3.63;1.05;;;8.90;99.90;;;;;;5095332;28;20064;-55
2023/05/19 02:06:18;;;;;;;4.47;1.20;;;9.00;99.90;;;;;;5095500;28;20453;-56
2023/05/19 02:09:02;;;;;;;5.03;0.85;;;9.00;99.90;;;;;;5095247;28;20086;-56
2023/05/19 02:11:42;;;;;;;3.03;0.70;;;9.00;99.90;;;;;;5095211;28;20052;-56
2023/05/19 02:14:16;;;;;;;3.95;1.23;;;9.00;99.90;;;;;;5095284;28;20072;-55
2023/05/19 02:16:46;;;;;;;3.58;1.00;;;9.00;99.90;;;;;;5095123;28;20054;-56
2023/05/19 02:19:27;;;;;;;6.10;1.33;;;9.00;99.90;;;;;;5095048;28;20479;-56
2023/05/19 02:21:53;;;;;;;3.53;1.00;;;9.00;99.90;;;;;;5095651;28;20101;-55
2023/05/19 02:24:21;;;;;;;3.50;0.97;;;9.00;99.90;;;;;;5094947;28;20483;-56
2023/05/19 02:26:48;;;;;;;4.25;0.90;;;9.00;99.90;;;;;;5095024;28;20036;-56
2023/05/19 02:29:14;;;;;;;;;;;9.00;99.90;;;;;;5095314;28;20089;-55
2023/05/19 02:31:40;;;;;;;5.82;1.15;;;9.00;99.90;;;;;;5094747;28;19919;-56
2023/05/19 02:34:07;;;;;;;3.30;1.23;;;9.00;99.90;;;;;;5094963;28;20433;-55
2023/05/19 02:36:34;;;;;;;3.88;1.42;;;9.00;99.90;;;;;;5094755;28;20069;-56
2023/05/19 02:39:03;;;;;;;2.80;0.88;;;9.00;99.90;;;;;;5093254;28;20399;-56
2023/05/19 02:41:29;;;;;;;4.50;1.20;;;9.00;99.90;;;;;;5093682;28;20056;-56
2023/05/19 02:43:55;;;;;;;5.30;1.10;;;9.00;99.90;;;;;;5094484;28;20051;-56
2023/05/19 02:46:20;;;;;;;9.93;1.53;;;9.00;99.90;;;;;;5094339;28;20043;-56
2023/05/19 02:48:46;;;;;;;6.13;1.50;;;9.00;99.90;;;;;;5094969;28;20088;-56
2023/05/19 02:51:12;;;;;;;4.07;1.30;;;9.00;99.90;;;;;;5095035;28;20472;-56
2023/05/19 02:53:37;;;;;;;5.13;1.23;;;9.00;99.90;;;;;;5094513;28;20585;-56
2023/05/19 02:56:03;;;;;;;7.63;1.80;;;8.90;99.90;;;;;;5094408;28;20494;-56
2023/05/19 02:58:29;;;;;;;4.17;1.20;;;8.90;99.90;;;;;;5094257;28;20044;-56
2023/05/19 03:00:55;;;;;;;6.82;1.50;;;8.90;99.90;;;;;;5092957;28;20048;-56
2023/05/19 03:03:21;;;;;;;6.65;1.48;;;8.90;99.90;;;;;;5094356;28;20043;-55
2023/05/19 03:05:46;;;;;;;5.07;1.27;;;8.80;99.90;;;;;;5094300;28;20120;-55
2023/05/19 03:08:12;;;;;;;3.00;1.27;;;8.80;99.90;;;;;;5093695;28;20047;-55
2023/05/19 03:10:38;;;;;;;6.63;1.50;;;8.80;99.90;;;;;;5094206;28;20040;-55
2023/05/19 03:13:04;;;;;;;5.93;1.43;;;8.90;99.90;;;;;;5093993;28;20044;-55
2023/05/19 03:15:29;;;;;;;4.63;1.27;;;8.80;99.90;;;;;;5093954;28;20056;-56
2023/05/19 03:17:55;;;;;;;4.43;1.43;;;8.90;99.90;;;;;;5093133;28;20477;-56
2023/05/19 03:20:21;;;;;;;6.70;1.67;;;8.90;99.90;;;;;;5093967;28;20101;-55
2023/05/19 03:22:47;;;;;;;5.63;1.37;;;8.80;99.90;;;;;;5094021;28;20044;-55
2023/05/19 03:25:13;;;;;;;4.10;1.60;;;8.80;99.90;;;;;;5094135;28;20043;-56
2023/05/19 03:27:38;;;;;;;3.60;1.13;;;8.90;99.90;;;;;;5093927;28;20558;-56
2023/05/19 03:30:05;;;;;;;2.93;0.90;;;8.80;99.90;;;;;;5093938;28;20126;-56
2023/05/19 03:32:31;;;;;;;3.53;1.45;;;8.70;99.90;;;;;;5126924;27;20047;-56
2023/05/19 03:34:57;;;;;;;5.60;1.70;;;8.60;99.90;;;;;;5093772;28;20535;-55
2023/05/19 03:37:23;;;;;;;3.45;1.20;;;8.50;99.90;;;;;;5093794;28;20055;-55
2023/05/19 03:39:49;;;;;;;7.43;1.70;;;8.50;99.90;;;;;;5093976;28;20054;-56
2023/05/19 03:42:15;;;;;;;5.37;1.60;;;8.50;99.90;;;;;;5093701;28;20450;-56
2023/05/19 03:44:40;;;;;;;4.03;1.33;;;8.50;99.90;;;;;;5093617;28;20377;-56
2023/05/19 03:47:06;;;;;;;4.23;1.90;;;8.40;99.90;;;;;;5094024;28;20421;-56
2023/05/19 03:49:32;;;;;;;5.70;1.80;;;8.40;99.90;;;;;;5092732;28;20124;-56
2023/05/19 03:51:57;;;;;;;3.90;1.30;;;8.40;99.90;;;;;;5093705;28;20036;-55
2023/05/19 03:54:23;;;;;;;3.07;1.17;;;8.40;99.90;;;;;;5093640;28;20077;-56
2023/05/19 03:56:49;;;;;;;2.50;1.00;;;8.40;99.90;;;;;;5093594;28;20040;-56
2023/05/19 03:59:15;;;;;;;2.60;1.07;;;8.40;99.90;;;;;;5092491;28;20052;-55
2023/05/19 04:01:40;;;;;;;2.80;1.20;;;8.40;99.90;;;;;;5093653;28;20060;-56
2023/05/19 04:04:06;;;;;;;2.40;1.00;;;8.40;99.90;;;;;;5092678;28;20052;-56
2023/05/19 04:06:32;;;;;;;2.27;0.80;;;8.30;99.90;;;;;;5093743;28;20136;-56
2023/05/19 04:08:58;;;;;;;1.85;0.80;;;8.30;99.90;;;;;;5093689;28;20052;-56
2023/05/19 04:11:24;;;;;;;1.40;0.60;;;8.20;99.90;;;;;;5093607;28;20087;-56
2023/05/19 04:13:50;;;;;;;4.23;0.93;;;8.20;99.90;;;;;;5093366;28;20083;-56
2023/05/19 04:16:15;;;;;;;2.87;0.90;;;8.20;99.90;;;;;;5093416;28;20048;-56
2023/05/19 04:18:41;;;;;;;3.87;1.10;;;8.20;99.90;;;;;;5093458;28;20043;-56
2023/05/19 04:21:07;;;;;;;3.37;1.10;;;8.30;99.90;;;;;;5096404;28;20096;-55
2023/05/19 04:23:33;;;;;;;4.50;1.30;;;8.30;99.90;;;;;;5097387;28;20132;-56
2023/05/19 04:26:00;;;;;;;4.50;1.53;;;8.40;99.90;;;;;;5097648;28;20534;-55
2023/05/19 04:28:26;;;;;;;4.63;1.50;;;8.40;99.90;;;;;;5097193;28;20048;-56
2023/05/19 04:30:52;;;;;;;4.63;1.73;;;8.50;99.90;;;;;;5097482;28;20047;-56
2023/05/19 04:33:18;;;;;;;3.50;1.37;;;8.50;99.90;;;;;;5096947;28;20047;-56
2023/05/19 04:35:44;;;;;;;2.97;1.20;;;8.60;99.90;;;;;;5096919;28;20510;-56
2023/05/19 04:38:10;;;;;;;4.32;1.40;;;8.60;99.90;;;;;;5096967;28;20389;-55
2023/05/19 04:40:40;;;;;;;4.17;1.37;;;8.60;99.90;;;;;;5096166;28;20055;-56
2023/05/19 04:43:08;;;;;;;4.13;1.50;;;8.70;99.90;;;;;;5095701;28;20377;-56
2023/05/19 04:45:36;;;;;;;2.67;1.15;;;8.70;99.90;;;;;;5096958;28;20193;-55
2023/05/19 04:48:02;;;;;;;3.40;0.85;;;8.80;99.90;;;;;;5096928;28;20121;-56
2023/05/19 04:50:29;;;;;;;7.00;1.80;;;8.80;99.90;;;;;;5096948;28;20043;-56
2023/05/19 04:52:57;;;;;;;6.70;1.77;;;8.80;99.90;;;;;;5096785;28;20062;-56
2023/05/19 04:55:23;;;;;;;3.33;1.30;;;8.90;99.90;;;;;;5096589;28;20132;-56
2023/05/19 04:57:49;;;;;;;5.40;1.93;;;8.90;99.90;;;;;;5096712;28;20083;-56
2023/05/19 05:00:15;;;;;;;5.30;2.10;;;9.00;99.90;;;;;;5096867;28;20442;-56
2023/05/19 05:02:41;;;;;;;5.68;2.13;;;9.00;99.90;;;;;;5096665;28;20052;-56
2023/05/19 05:05:08;;;;;;;7.17;2.43;;;9.10;99.90;;;;;;5096668;28;20052;-56
2023/05/19 05:07:33;;;;;;;4.78;1.92;;;9.10;99.90;;;;;;5096573;28;20043;-56
2023/05/19 05:09:59;;;;;;;6.60;2.27;;;9.30;99.90;;;;;;5096551;28;20105;-56
2023/05/19 05:12:25;;;;;;;5.13;2.07;;;9.30;99.90;;;;;;5096843;28;20506;-56
2023/05/19 05:14:51;;;;;;;6.53;2.00;;;9.40;99.90;;;;;;5096352;28;20376;-56
2023/05/19 05:17:19;;;;;;;5.60;2.03;;;9.60;99.90;;;;;;5096446;28;20610;-56
2023/05/19 05:19:45;;;;;;;5.70;2.15;;;9.70;99.90;;;;;;5095184;28;20052;-57
2023/05/19 05:22:11;;;;;;;5.50;2.10;;;9.80;99.90;;;;;;5096155;28;20452;-56
2023/05/19 05:24:37;;;;;;;5.32;2.33;;;9.90;99.90;;;;;;5095941;28;20055;-56
2023/05/19 05:27:03;;;;;;;5.90;2.53;;;10.00;99.90;;;;;;5095893;28;20472;-56
2023/05/19 05:29:29;;;;;;;5.53;1.98;;;10.00;99.90;;;;;;5096184;28;20149;-56
2023/05/19 05:31:54;;;;;;;6.77;2.03;;;10.00;99.90;;;;;;5095513;28;20593;-56
2023/05/19 05:34:20;;;;;;;4.40;2.00;;;10.20;99.90;;;;;;5095974;28;20052;-56
2023/05/19 05:36:46;;;;;;;6.83;2.47;;;10.50;99.90;;;;;;5095890;28;20119;-56
2023/05/19 05:39:11;;;;;;;9.23;2.50;;;10.90;99.90;;;;;;5095769;28;20055;-56
2023/05/19 05:41:37;;;;;;;6.17;2.30;;;11.20;99.90;;;;;;5095687;28;20048;-56
2023/05/19 05:44:03;;;;;;;5.37;2.40;;;11.30;99.90;;;;;;5096093;28;20048;-56
2023/05/19 05:46:30;;;;;;;5.03;2.45;;;11.40;99.90;;;;;;5095773;28;20040;-56
2023/05/19 05:48:56;;;;;;;5.90;2.20;;;11.50;99.90;;;;;;5095656;28;20044;-56
2023/05/19 05:51:23;;;;;;;10.10;2.70;;;11.60;99.90;;;;;;5095742;28;20052;-56
2023/05/19 05:53:53;;;;;;;8.77;2.70;;;11.70;99.90;;;;;;5077354;28;20052;-56
2023/05/19 05:56:20;;;;;;;5.78;2.42;;;11.80;99.90;;;;;;5095825;28;20104;-56
2023/05/19 05:58:46;;;;;;;6.10;2.78;;;11.90;99.90;;;;;;5095877;28;20406;-56
2023/05/19 06:01:12;;;;;;;8.55;2.40;;;11.90;99.90;;;;;;5095514;28;20044;-56
2023/05/19 06:03:39;;;;;;;7.40;2.80;;;12.10;99.90;;;;;;5095320;28;20550;-56
2023/05/19 06:06:05;;;;;;;7.07;2.47;;;12.20;99.90;;;;;;5095405;28;20052;-56
2023/05/19 06:08:31;;;;;;;6.45;2.28;;;12.40;99.90;;;;;;5095084;28;20463;-56
2023/05/19 06:10:57;;;;;;;7.87;3.17;;;12.50;99.90;;;;;;5095271;28;20048;-56
2023/05/19 06:13:24;;;;;;;6.95;2.42;;;12.70;99.90;;;;;;5095264;28;20044;-56
2023/05/19 06:15:51;;;;;;;7.13;2.63;;;12.70;99.90;;;;;;5095163;28;20051;-56
2023/05/19 06:18:17;;;;;;;5.72;2.40;;;12.70;99.90;;;;;;5095056;28;20044;-56
2023/05/19 06:20:43;;;;;;;6.00;2.70;;;12.70;99.90;;;;;;5094930;28;20131;-56
2023/05/19 06:23:09;;;;;;;9.27;2.55;;;12.80;99.90;;;;;;5094697;28;20044;-56
2023/05/19 06:25:34;;;;;;;5.97;2.37;;;12.90;99.90;;;;;;5095006;28;20434;-56
2023/05/19 06:28:00;;;;;;;6.40;2.50;;;13.00;99.90;;;;;;5094921;28;20378;-56
2023/05/19 06:30:26;;;;;;;6.10;2.30;;;13.10;99.90;;;;;;5094816;28;20079;-56
2023/05/19 06:32:52;;;;;;;6.17;2.50;;;13.10;99.90;;;;;;5093774;28;20036;-56
2023/05/19 06:35:17;;;;;;;4.97;2.17;;;13.10;99.90;;;;;;5094686;28;20044;-56
2023/05/19 06:37:44;;;;;;;;;;;13.00;99.90;;;;;;5094901;28;20044;-57
2023/05/19 06:40:10;;;;;;;5.35;2.05;;;13.00;99.90;;;;;;5094735;28;19973;-56
2023/05/19 06:42:36;;;;;;;5.32;1.80;;;13.10;99.90;;;;;;5093674;28;20051;-56
2023/05/19 06:45:02;;;;;;;6.07;2.33;;;13.20;99.90;;;;;;5094596;28;20130;-57
2023/05/19 06:47:27;;;;;;;5.97;2.23;;;13.30;99.90;;;;;;5094580;28;20043;-56
2023/05/19 06:49:54;;;;;;;6.17;2.37;;;13.40;99.90;;;;;;5094691;28;20715;-56
2023/05/19 06:52:21;;;;;;;6.78;2.25;;;13.50;99.90;;;;;;5094327;28;20051;-56
2023/05/19 06:54:49;;;;;;;5.78;1.60;;;13.60;99.90;;;;;;5094542;28;20090;-56
2023/05/19 06:57:15;;;;;;;7.45;1.70;;;13.80;99.90;;;;;;5094518;28;20142;-56
2023/05/19 06:59:42;;;;;;;3.42;1.58;;;13.80;99.90;;;;;;5094264;28;20101;-56
2023/05/19 07:02:08;;;;;;;;;;;13.80;99.90;;;;;;5094563;28;20090;-56
2023/05/19 07:04:34;;;;;;;5.63;1.52;;;13.70;99.90;;;;;;5094305;28;19975;-56
2023/05/19 07:07:00;;;;;;;3.38;1.50;;;13.80;99.90;;;;;;5094032;28;20040;-56
2023/05/19 07:09:25;;;;;;;5.87;2.23;;;13.90;99.90;;;;;;5094170;28;20048;-56
2023/05/19 07:11:51;;;;;;;4.17;1.77;;;14.00;99.90;;;;;;5094133;28;20131;-56
2023/05/19 07:14:17;;;;;;;4.77;1.70;;;14.20;99.90;;;;;;5094180;28;20048;-56
2023/05/19 07:16:42;;;;;;;3.60;1.37;;;14.50;99.90;;;;;;5092951;28;20164;-56
2023/05/19 07:19:08;;;;;;;5.63;1.33;;;14.60;99.90;;;;;;5093926;28;20043;-56
2023/05/19 07:21:34;;;;;;;4.23;1.30;;;14.60;99.90;;;;;;5093960;28;20047;-56
2023/05/19 07:23:59;;;;;;;8.03;1.70;;;14.70;99.90;;;;;;5094055;28;20047;-56
2023/05/19 07:26:25;;;;;;;4.23;1.57;;;14.70;99.90;;;;;;5093998;28;20468;-56
2023/05/19 07:28:51;;;;;;;3.58;1.38;;;14.70;99.90;;;;;;5094133;28;20048;-56
2023/05/19 07:31:17;;;;;;;6.32;1.40;;;14.50;99.90;;;;;;5093914;28;20051;-56
2023/05/19 07:33:42;;;;;;;3.93;1.87;;;14.40;99.90;;;;;;5093714;28;20127;-57
2023/05/19 07:36:08;;;;;;;4.23;1.60;;;14.40;99.90;;;;;;5093489;28;20044;-54
2023/05/19 07:38:34;;;;;;;6.03;1.40;;;14.30;99.90;;;;;;5093616;28;20059;-56
2023/05/19 07:41:01;;;;;;;3.25;1.30;;;14.20;99.90;;;;;;5094384;28;20051;-56
2023/05/19 07:43:27;;;;;;;4.68;1.42;;;14.20;99.90;;;;;;5093696;28;20128;-56
2023/05/19 07:45:54;;;;;;;2.80;0.97;;;14.20;99.90;;;;;;5093741;28;20087;-56
2023/05/19 07:48:21;;;;;;;2.20;1.00;;;14.10;99.90;;;;;;5093692;28;20278;-56
2023/05/19 07:50:51;;;;;;;3.20;1.15;;;14.10;99.90;;;;;;5093533;28;20048;-57
2023/05/19 07:53:18;;;;;;;3.65;1.00;;;14.10;99.90;;;;;;5093734;28;20036;-57
2023/05/19 07:55:43;;;;;;;;;;;14.20;99.90;;;;;;5097275;28;20483;-56
2023/05/19 07:58:09;;;;;;;3.70;1.20;;;14.20;99.90;;;;;;5097896;28;19927;-56
2023/05/19 08:00:35;;;;;;;2.78;1.27;;;14.30;99.90;;;;;;5096805;28;20059;-53
2023/05/19 08:03:01;;;;;;;4.72;1.30;;;14.30;99.90;;;;;;5097581;28;20044;-56
2023/05/19 08:05:28;;;;;;;5.20;1.13;;;14.30;99.90;;;;;;5097658;28;20044;-56
2023/05/19 08:07:55;;;;;;;3.17;1.20;;;14.30;99.90;;;;;;5097763;28;20048;-55
2023/05/19 08:10:21;;;;;;;3.60;1.45;;;14.30;99.90;;;;;;5097345;28;20501;-56
2023/05/19 08:12:46;;;;;;;5.55;1.10;;;14.30;99.90;;;;;;5097669;28;20059;-56
2023/05/19 08:15:12;;;;;;;3.70;1.05;;;14.30;99.90;;;;;;5097464;28;20079;-49
2023/05/19 08:17:38;;;;;;;3.50;1.40;;;14.30;99.90;;;;;;5097271;28;20051;-56
2023/05/19 08:20:07;;;;;;;4.50;1.57;;;14.30;99.90;;;;;;5097108;28;20054;-57
2023/05/19 08:22:32;;;;;;;6.72;1.40;;;14.40;99.90;;;;;;5097851;28;20101;-57
2023/05/19 08:24:58;;;;;;;5.27;1.33;;;14.40;99.90;;;;;;5096257;28;20437;-56
2023/05/19 08:27:24;;;;;;;3.90;1.33;;;14.40;99.90;;;;;;5096072;28;20048;-56
2023/05/19 08:29:49;;;;;;;5.03;1.53;;;14.40;99.90;;;;;;5097228;28;20518;-57
2023/05/19 08:32:16;;;;;;;4.30;1.63;;;14.40;99.90;;;;;;5097086;28;20055;-57
2023/05/19 08:34:41;;;;;;;3.72;1.30;;;14.50;99.90;;;;;;5097023;28;20506;-55
2023/05/19 08:37:07;;;;;;;5.07;1.30;;;14.50;99.90;;;;;;5097126;28;20036;-57
2023/05/19 08:39:33;;;;;;;4.03;1.60;;;14.50;99.90;;;;;;5096826;28;20407;-56
2023/05/19 08:42:00;;;;;;;4.03;1.42;;;14.50;99.90;;;;;;5097011;28;20096;-55
2023/05/19 08:44:26;;;;;;;3.70;1.60;;;14.60;99.90;;;;;;5096928;28;20055;-56
2023/05/19 08:46:54;;;;;;;3.85;1.38;;;14.60;99.90;;;;;;5096641;28;20032;-56
2023/05/19 08:49:26;;;;;;;3.70;0.98;;;14.60;99.90;;;;;;5096607;28;20535;-56
2023/05/19 08:52:07;;;;;;;4.15;1.45;;;14.70;99.90;;;;;;5096967;28;20092;-56
2023/05/19 08:54:41;;;;;;;4.07;1.48;;;14.70;99.90;;;;;;5096736;28;20088;-51
2023/05/19 08:57:07;;;;;;;4.80;1.45;;;14.70;99.90;;;;;;5096802;28;20036;-54
2023/05/19 08:59:34;;;;;;;4.05;1.20;;;14.70;99.90;;;;;;5096458;28;20137;-53
2023/05/19 09:02:00;;;;;;;3.45;1.25;;;14.70;99.90;;;;;;5096636;28;20047;-55
2023/05/19 09:04:27;;;;;;;4.18;1.55;;;14.70;99.90;;;;;;5096522;28;20051;-56
2023/05/19 09:06:52;;;;;;;3.53;1.25;;;14.60;99.90;;;;;;5095632;28;20075;-55
2023/05/19 09:09:18;;;;;;;4.45;1.30;;;14.70;99.90;;;;;;5096453;28;20403;-56
2023/05/19 09:11:47;;;;;;;3.65;1.10;;;14.60;99.90;;;;;;5096588;28;20433;-55
2023/05/19 09:14:13;;;;;;;3.15;1.30;;;14.60;99.90;;;;;;5095051;28;20441;-56
2023/05/19 09:16:39;;;;;;;6.00;1.27;;;14.70;99.90;;;;;;5096479;28;20036;-56
2023/05/19 09:19:11;;;;;;;3.38;1.20;;;14.70;99.90;;;;;;5096379;28;20596;-52
2023/05/19 09:21:37;;;;;;;4.97;1.17;;;14.60;99.90;;;;;;5096318;28;20070;-56
2023/05/19 09:24:07;;;;;;;3.28;1.23;;;14.60;99.90;;;;;;5096267;28;20048;-57
2023/05/19 09:26:38;;;;;;;3.53;1.17;;;14.60;99.90;;;;;;5095747;28;20036;-56
2023/05/19 09:29:15;;;;;;;5.97;1.00;;;14.60;99.90;;;;;;5096141;28;20044;-53
2023/05/19 09:31:51;;;;;;;3.38;1.00;;;14.60;99.90;;;;;;5096128;28;20122;-55
2023/05/19 09:34:17;;;;;;;3.28;0.90;;;14.60;99.90;;;;;;5096039;28;20556;-56
2023/05/19 09:36:43;;;;;;;3.85;1.20;;;14.70;99.90;;;;;;5095747;28;20045;-55
2023/05/19 09:39:15;;;;;;;5.07;1.20;;;14.70;99.90;;;;;;5095836;28;20054;-52
2023/05/19 09:41:41;;;;;;;4.22;1.00;;;14.80;99.90;;;;;;5095856;28;20329;-57
2023/05/19 09:44:11;;;;;;;5.25;1.25;;;14.80;99.90;;;;;;5095829;28;20091;-57
2023/05/19 09:46:37;;;;;;;4.10;1.10;;;14.80;99.90;;;;;;5094640;28;20075;-56
2023/05/19 09:49:09;;;;;;;3.00;1.23;;;14.80;99.90;;;;;;5095785;28;20083;-56
2023/05/19 09:51:40;;;;;;;2.05;0.90;;;14.80;99.90;;;;;;5095494;28;20093;-56
2023/05/19 09:54:08;;;;;;;6.00;1.10;;;14.80;99.90;;;;;;5095577;28;20118;-51
2023/05/19 09:56:34;;;;;;;3.65;1.75;;;14.80;99.90;;;;;;5095940;28;20118;-56
2023/05/19 09:59:02;;;;;;;4.25;1.50;;;14.80;99.90;;;;;;5095630;28;20487;-56
2023/05/19 10:01:30;;;;;;;2.45;1.02;;;14.80;99.90;;;;;;5095456;28;20048;-56
2023/05/19 10:03:56;;;;;;;4.95;1.17;;;14.90;99.90;;;;;;5095238;28;20052;-56
2023/05/19 10:06:22;;;;;;;;;;;14.90;99.90;;;;;;5095682;28;20510;-57
2023/05/19 10:08:50;;;;;;;2.85;1.00;;;14.90;99.90;;;;;;5095151;28;19920;-56
2023/05/19 10:11:16;;;;;;;3.35;1.20;;;14.90;99.90;;;;;;5095379;28;20137;-57
2023/05/19 10:13:45;;;;;;;3.92;1.20;;;14.90;99.90;;;;;;5095265;28;20048;-57
2023/05/19 10:16:15;;;;;;;4.18;1.38;;;15.00;99.90;;;;;;5095279;28;20048;-57
2023/05/19 10:18:41;;;;;;;3.67;1.20;;;15.00;99.90;;;;;;5095101;28;20044;-57
2023/05/19 10:21:08;;;;;;;5.72;1.33;;;15.10;99.90;;;;;;5094025;28;20059;-56
2023/05/19 10:23:34;;;;;;;3.53;1.23;;;15.20;99.90;;;;;;5094286;28;20052;-55
2023/05/19 10:26:03;;;;;;;2.75;1.48;;;15.30;99.90;;;;;;5095005;28;20506;-53
2023/05/19 10:28:41;;;;;;;3.22;1.15;;;15.40;99.90;;;;;;5095168;28;20455;-57
2023/05/19 10:31:12;;;;;;;5.75;1.25;;;15.50;99.90;;;;;;5093993;28;20055;-55
2023/05/19 10:33:37;;;;;;;2.78;0.90;;;15.60;99.90;;;;;;5094884;28;20142;-55
2023/05/19 10:36:36;;;;;;;4.67;1.23;;;15.70;99.90;;;;;;5094919;28;20048;-55
2023/05/19 10:39:12;;;;;;;4.15;1.60;;;15.80;99.90;;;;;;5094890;28;20055;-55
2023/05/19 10:41:56;;;;;;;4.63;1.30;;;15.90;99.90;;;;;;5094682;28;20044;-54
2023/05/19 10:45:03;;;;;;;5.50;1.60;;;16.00;99.90;;;;;;5094772;28;20066;-55
2023/05/19 10:47:29;;;;;;;2.90;1.10;;;16.10;99.90;;;;;;5094448;28;20051;-53
2023/05/19 10:49:55;;;;;;;5.30;1.17;;;16.20;99.90;;;;;;5094431;28;20052;-55
2023/05/19 10:52:24;;;;;;;3.90;1.20;;;16.30;99.90;;;;;;5094234;28;20097;-55
2023/05/19 10:54:53;;;;;;;3.25;1.40;;;16.30;99.90;;;;;;5094425;28;20047;-54
2023/05/19 10:57:25;;;;;;;3.85;1.55;;;16.40;99.90;;;;;;5094324;28;20040;-54
2023/05/19 10:59:51;;;;;;;4.18;1.52;;;16.30;99.90;;;;;;5094293;28;20087;-56
2023/05/19 11:02:39;;;;;;;3.27;1.80;;;16.30;99.90;;;;;;5094296;28;20083;-57
2023/05/19 11:05:13;;;;;;;3.42;1.33;;;16.30;99.90;;;;;;5094244;28;20297;-55
2023/05/19 11:07:43;;;;;;;3.63;1.52;;;16.40;99.90;;;;;;5094618;28;20036;-58
2023/05/19 11:10:09;;;;;;;3.67;1.23;;;16.50;99.90;;;;;;5092894;28;20046;-52
2023/05/19 11:12:44;;;;;;;3.60;1.13;;;16.60;99.90;;;;;;5094289;28;20058;-57
2023/05/19 11:15:14;;;;;;;4.45;1.60;;;16.70;99.90;;;;;;5094056;28;20391;-57
2023/05/19 11:17:43;;;;;;;5.20;1.30;;;16.70;99.90;;;;;;5093137;28;20048;-57
2023/05/19 11:20:25;;;;;;;6.28;1.20;;;16.90;99.90;;;;;;5094173;28;20130;-55
2023/05/19 11:23:17;;;;;;;3.50;1.02;;;17.00;99.90;;;;;;5094068;28;20054;-52
2023/05/19 11:25:43;;;;;;;3.30;1.10;;;17.10;99.90;;;;;;5092869;28;20043;-58
2023/05/19 11:28:15;;;;;;;3.38;1.23;;;17.20;99.90;;;;;;5093583;28;20400;-57
2023/05/19 11:30:43;;;;;;;2.58;1.00;;;17.20;99.90;;;;;;5094290;28;20043;-54
2023/05/19 11:33:09;;;;;;;2.83;1.08;;;17.30;98.80;;;;;;5094099;28;20052;-51
2023/05/19 11:35:35;;;;;;;3.67;1.00;;;17.30;97.80;;;;;;5093889;28;20044;-55
2023/05/19 11:38:02;;;;;;;;;;;17.30;98.30;;;;;;5094200;28;20417;-57
2023/05/19 11:40:29;;;;;;;4.10;1.50;;;17.40;99.00;;;;;;5092527;28;19927;-54
2023/05/19 11:42:55;;;;;;;3.35;1.25;;;17.50;98.90;;;;;;5093843;28;20135;-55
2023/05/19 11:45:28;;;;;;;3.00;1.10;;;17.60;98.10;;;;;;5093634;28;20079;-49
2023/05/19 11:47:55;;;;;;;3.00;0.80;;;17.70;97.90;;;;;;5093684;28;20048;-55
2023/05/19 11:50:21;;;;;;;3.38;0.82;;;17.70;97.10;;;;;;5093576;28;20132;-54
2023/05/19 11:52:47;;;;;;;2.45;0.85;;;17.70;96.00;;;;;;5093573;28;20075;-49
2023/05/19 11:55:22;;;;;;;4.10;0.90;;;17.70;95.60;;;;;;5093570;28;20086;-49
2023/05/19 11:58:01;;;;;;;2.97;0.93;;;17.70;95.60;;;;;;5092727;28;20383;-50
2023/05/19 12:00:28;;;;;;;2.15;0.90;;;17.80;94.60;;;;;;5093922;28;20048;-49
2023/05/19 12:02:55;;;;;;;4.07;1.02;;;17.90;95.30;;;;;;5093450;28;20044;-50
2023/05/19 12:05:25;;;;;;;2.83;0.90;;;18.10;96.00;;;;;;5092300;28;20047;-50
2023/05/19 12:07:52;;;;;;;4.32;0.93;;;18.20;95.80;;;;;;5093711;28;20395;-51
2023/05/19 12:10:22;;;;;;;2.70;1.10;;;18.20;95.60;;;;;;5093540;28;20531;-49
2023/05/19 12:12:50;;;;;;;5.07;1.50;;;18.20;95.10;;;;;;5093554;28;20044;-50
2023/05/19 12:15:21;;;;;;;3.60;1.10;;;18.30;94.90;;;;;;5093333;28;20483;-51
2023/05/19 12:17:55;;;;;;;4.70;1.10;;;18.30;95.10;;;;;;5093254;28;20048;-50
2023/05/19 12:20:22;;;;;;;5.20;1.38;;;18.30;95.30;;;;;;5092687;28;20048;-50
2023/05/19 12:22:48;;;;;;;4.97;1.20;;;18.30;95.10;;;;;;5093416;28;20573;-47
2023/05/19 12:25:17;;;;;;;5.43;1.67;;;18.30;94.30;;;;;;5093500;28;20141;-47
2023/05/19 12:27:43;;;;;;;4.20;1.15;;;18.30;93.90;;;;;;5093375;28;20052;-50
2023/05/19 12:30:10;;;;;;;2.85;1.20;;;18.20;94.20;;;;;;5093333;28;20498;-50
2023/05/19 12:32:36;;;;;;;4.70;1.35;;;18.20;94.30;;;;;;5093422;28;20056;-50
2023/05/19 12:35:04;;;;;;;2.95;1.20;;;18.10;94.30;;;;;;5093314;28;20055;-51
2023/05/19 12:37:30;;;;;;;3.05;1.10;;;18.20;94.30;;;;;;5093221;28;20044;-50
2023/05/19 12:39:56;;;;;;;4.57;1.70;;;18.20;94.60;;;;;;5093300;28;20099;-51
2023/05/19 12:42:23;;;;;;;3.40;1.20;;;18.30;94.10;;;;;;5096535;28;20087;-49
2023/05/19 12:44:51;;;;;;;3.67;1.02;;;18.40;93.80;;;;;;5096989;28;20052;-51
2023/05/19 12:47:18;;;;;;;3.72;1.15;;;18.40;94.00;;;;;;5097069;28;20044;-49
2023/05/19 12:50:00;;;;;;;3.97;1.30;;;18.40;94.10;;;;;;5096904;28;20050;-49
2023/05/19 12:52:28;;;;;;;5.07;1.50;;;18.40;94.10;;;;;;5096855;28;20055;-50
2023/05/19 12:54:59;;;;;;;2.88;1.20;;;18.50;93.10;;;;;;5096703;28;20055;-50
2023/05/19 12:57:25;;;;;;;4.13;1.27;;;18.50;93.10;;;;;;5096568;28;20047;-52